sensor_id;sensor_type;location;lat;lon;timestamp;pressure;altitude;pressure_sealevel;temperature;humidity
59859;BME280;45734;53.648;9.566;2022-09-09T00:04:28;100784.88;;;13.42;100.00
59859;BME280;45734;53.648;9.566;2022-09-09T00:09:45;100791.03;;;13.42;100.00
59859;BME280;45734;53.648;9.566;2022-09-09T00:15:05;100798.88;;;13.44;100.00
59859;BME280;45734;53.648;9.566;2022-09-09T00:20:29;100791.03;;;13.42;100.00
59859;BME280;45734;53.648;9.566;2022-09-09T00:25:59;100789.88;;;13.45;100.00
59859;BME280;45734;53.648;9.566;2022-09-09T00:31:11;100778.97;;;13.46;100.00
59859;BME280;45734;53.648;9.566;2022-09-09T00:36:14;100786.34;;;13.44;100.00
59859;BME280;45734;53.648;9.566;2022-09-09T00:41:44;100778.34;;;13.44;100.00
59859;BME280;45734;53.648;9.566;2022-09-09T00:52:01;100776.38;;;13.38;100.00
59859;BME280;45734;53.648;9.566;2022-09-09T00:57:24;100775.41;;;13.31;100.00
59859;BME280;45734;53.648;9.566;2022-09-09T01:02:29;100773.41;;;13.25;100.00
59859;BME280;45734;53.648;9.566;2022-09-09T01:07:31;100772.28;;;13.19;100.00
59859;BME280;45734;53.648;9.566;2022-09-09T01:12:39;100774.84;;;13.12;100.00
59859;BME280;45734;53.648;9.566;2022-09-09T01:23:26;100780.63;;;12.93;100.00
59859;BME280;45734;53.648;9.566;2022-09-09T01:28:25;100780.03;;;12.83;100.00
59859;BME280;45734;53.648;9.566;2022-09-09T01:33:27;100782.34;;;12.86;100.00
59859;BME280;45734;53.648;9.566;2022-09-09T01:38:28;100766.13;;;12.87;100.00
59859;BME280;45734;53.648;9.566;2022-09-09T01:43:29;100769.47;;;12.89;100.00
59859;BME280;45734;53.648;9.566;2022-09-09T01:48:30;100762.63;;;12.87;100.00
59859;BME280;45734;53.648;9.566;2022-09-09T01:53:31;100762.63;;;12.87;100.00
59859;BME280;45734;53.648;9.566;2022-09-09T01:58:44;100767.78;;;12.88;100.00
59859;BME280;45734;53.648;9.566;2022-09-09T02:03:52;100779.13;;;12.90;100.00
59859;BME280;45734;53.648;9.566;2022-09-09T02:08:55;100771.81;;;12.84;100.00
59859;BME280;45734;53.648;9.566;2022-09-09T02:14:05;100774.34;;;12.86;100.00
59859;BME280;45734;53.648;9.566;2022-09-09T02:19:13;100775.31;;;12.85;100.00
59859;BME280;45734;53.648;9.566;2022-09-09T02:24:15;100770.53;;;12.80;100.00
59859;BME280;45734;53.648;9.566;2022-09-09T02:29:19;100766.03;;;12.73;100.00
59859;BME280;45734;53.648;9.566;2022-09-09T02:34:23;100760.84;;;12.71;100.00
59859;BME280;45734;53.648;9.566;2022-09-09T02:39:24;100760.03;;;12.71;100.00
59859;BME280;45734;53.648;9.566;2022-09-09T02:44:24;100752.66;;;12.73;100.00
59859;BME280;45734;53.648;9.566;2022-09-09T02:54:45;100752.06;;;12.62;100.00
59859;BME280;45734;53.648;9.566;2022-09-09T02:59:46;100756.06;;;12.58;100.00
59859;BME280;45734;53.648;9.566;2022-09-09T03:04:46;100761.41;;;12.58;100.00
59859;BME280;45734;53.648;9.566;2022-09-09T03:09:50;100755.56;;;12.63;100.00
59859;BME280;45734;53.648;9.566;2022-09-09T03:14:51;100760.09;;;12.62;100.00
59859;BME280;45734;53.648;9.566;2022-09-09T03:19:51;100766.75;;;12.66;100.00
59859;BME280;45734;53.648;9.566;2022-09-09T03:24:54;100766.06;;;12.64;100.00
59859;BME280;45734;53.648;9.566;2022-09-09T03:29:55;100757.41;;;12.62;100.00
59859;BME280;45734;53.648;9.566;2022-09-09T03:34:56;100764.28;;;12.57;100.00
59859;BME280;45734;53.648;9.566;2022-09-09T03:39:56;100762.94;;;12.53;100.00
59859;BME280;45734;53.648;9.566;2022-09-09T03:44:56;100759.31;;;12.45;100.00
59859;BME280;45734;53.648;9.566;2022-09-09T03:49:57;100765.00;;;12.42;100.00
59859;BME280;45734;53.648;9.566;2022-09-09T03:54:58;100771.19;;;12.43;100.00
59859;BME280;45734;53.648;9.566;2022-09-09T03:59:58;100768.66;;;12.41;100.00
59859;BME280;45734;53.648;9.566;2022-09-09T04:05:01;100762.69;;;12.39;100.00
59859;BME280;45734;53.648;9.566;2022-09-09T04:10:01;100770.69;;;12.39;100.00
59859;BME280;45734;53.648;9.566;2022-09-09T04:15:02;100776.88;;;12.40;100.00
59859;BME280;45734;53.648;9.566;2022-09-09T04:20:02;100777.84;;;12.39;100.00
59859;BME280;45734;53.648;9.566;2022-09-09T04:25:03;100773.38;;;12.39;100.00
59859;BME280;45734;53.648;9.566;2022-09-09T04:30:04;100763.50;;;12.40;100.00
59859;BME280;45734;53.648;9.566;2022-09-09T04:35:05;100768.19;;;12.38;100.00
59859;BME280;45734;53.648;9.566;2022-09-09T04:40:05;100788.38;;;12.40;100.00
59859;BME280;45734;53.648;9.566;2022-09-09T04:45:09;100781.69;;;12.44;100.00
59859;BME280;45734;53.648;9.566;2022-09-09T04:50:11;100786.50;;;12.49;100.00
59859;BME280;45734;53.648;9.566;2022-09-09T04:55:12;100787.31;;;12.58;100.00
59859;BME280;45734;53.648;9.566;2022-09-09T05:00:15;100789.16;;;12.57;100.00
59859;BME280;45734;53.648;9.566;2022-09-09T05:05:17;100800.47;;;12.59;100.00
59859;BME280;45734;53.648;9.566;2022-09-09T05:10:18;100801.16;;;12.61;100.00
59859;BME280;45734;53.648;9.566;2022-09-09T05:15:18;100807.50;;;12.68;100.00
59859;BME280;45734;53.648;9.566;2022-09-09T05:20:20;100808.56;;;12.82;100.00
59859;BME280;45734;53.648;9.566;2022-09-09T05:25:21;100810.88;;;13.25;100.00
59859;BME280;45734;53.648;9.566;2022-09-09T05:30:22;100808.31;;;14.30;100.00
59859;BME280;45734;53.648;9.566;2022-09-09T05:35:27;100807.81;;;15.37;100.00
59859;BME280;45734;53.648;9.566;2022-09-09T05:40:27;100811.09;;;16.32;100.00
59859;BME280;45734;53.648;9.566;2022-09-09T05:45:28;100830.84;;;15.89;100.00
59859;BME280;45734;53.648;9.566;2022-09-09T05:50:28;100835.91;;;15.20;100.00
59859;BME280;45734;53.648;9.566;2022-09-09T05:55:29;100838.69;;;14.75;100.00
59859;BME280;45734;53.648;9.566;2022-09-09T06:00:29;100845.00;;;14.44;100.00
59859;BME280;45734;53.648;9.566;2022-09-09T06:05:32;100849.53;;;14.29;100.00
59859;BME280;45734;53.648;9.566;2022-09-09T06:10:33;100852.66;;;14.18;100.00
59859;BME280;45734;53.648;9.566;2022-09-09T06:15:34;100851.47;;;14.20;100.00
59859;BME280;45734;53.648;9.566;2022-09-09T06:20:34;100861.00;;;14.38;100.00
59859;BME280;45734;53.648;9.566;2022-09-09T06:25:34;100846.88;;;14.44;100.00
59859;BME280;45734;53.648;9.566;2022-09-09T06:30:34;100847.53;;;14.46;100.00
59859;BME280;45734;53.648;9.566;2022-09-09T06:35:36;100854.72;;;14.45;100.00
59859;BME280;45734;53.648;9.566;2022-09-09T06:40:36;100856.56;;;14.45;100.00
59859;BME280;45734;53.648;9.566;2022-09-09T06:45:36;100861.19;;;14.51;100.00
59859;BME280;45734;53.648;9.566;2022-09-09T06:50:37;100861.19;;;14.51;100.00
59859;BME280;45734;53.648;9.566;2022-09-09T06:55:37;100866.41;;;14.53;100.00
59859;BME280;45734;53.648;9.566;2022-09-09T07:00:37;100868.72;;;14.56;100.00
59859;BME280;45734;53.648;9.566;2022-09-09T07:05:38;100871.22;;;14.72;100.00
59859;BME280;45734;53.648;9.566;2022-09-09T07:10:39;100874.72;;;14.87;100.00
59859;BME280;45734;53.648;9.566;2022-09-09T07:15:39;100870.38;;;15.01;100.00
59859;BME280;45734;53.648;9.566;2022-09-09T07:20:39;100868.72;;;15.36;100.00
59859;BME280;45734;53.648;9.566;2022-09-09T07:25:44;100864.09;;;15.88;100.00
59859;BME280;45734;53.648;9.566;2022-09-09T07:30:59;100867.63;;;16.17;100.00
59859;BME280;45734;53.648;9.566;2022-09-09T07:36:09;100872.16;;;16.38;100.00
59859;BME280;45734;53.648;9.566;2022-09-09T07:41:11;100871.31;;;16.72;100.00
59859;BME280;45734;53.648;9.566;2022-09-09T07:46:14;100878.94;;;17.58;100.00
59859;BME280;45734;53.648;9.566;2022-09-09T07:51:16;100877.78;;;18.27;100.00
59859;BME280;45734;53.648;9.566;2022-09-09T07:56:18;100886.38;;;18.95;100.00
59859;BME280;45734;53.648;9.566;2022-09-09T08:01:27;100892.53;;;20.18;100.00
59859;BME280;45734;53.648;9.566;2022-09-09T08:06:31;100887.28;;;19.98;100.00
59859;BME280;45734;53.648;9.566;2022-09-09T08:11:33;100893.31;;;19.30;100.00
59859;BME280;45734;53.648;9.566;2022-09-09T08:16:38;100902.78;;;18.87;100.00
59859;BME280;45734;53.648;9.566;2022-09-09T08:21:39;100902.41;;;18.64;100.00
59859;BME280;45734;53.648;9.566;2022-09-09T08:26:42;100900.16;;;18.54;100.00
59859;BME280;45734;53.648;9.566;2022-09-09T08:31:48;100899.13;;;18.48;100.00
59859;BME280;45734;53.648;9.566;2022-09-09T08:36:49;100894.78;;;18.47;100.00
59859;BME280;45734;53.648;9.566;2022-09-09T08:52:57;100913.22;;;18.50;100.00
59859;BME280;45734;53.648;9.566;2022-09-09T08:58:09;100906.16;;;18.76;100.00
59859;BME280;45734;53.648;9.566;2022-09-09T09:03:22;100913.28;;;19.22;100.00
59859;BME280;45734;53.648;9.566;2022-09-09T09:08:38;100926.38;;;19.70;100.00
59859;BME280;45734;53.648;9.566;2022-09-09T09:14:00;100924.00;;;20.62;100.00
59859;BME280;45734;53.648;9.566;2022-09-09T09:19:02;100920.13;;;21.13;100.00
59859;BME280;45734;53.648;9.566;2022-09-09T09:24:07;100918.75;;;21.59;100.00
59859;BME280;45734;53.648;9.566;2022-09-09T09:29:18;100918.09;;;21.87;100.00
59859;BME280;45734;53.648;9.566;2022-09-09T09:34:19;100921.59;;;22.06;100.00
59859;BME280;45734;53.648;9.566;2022-09-09T09:39:37;100928.97;;;22.41;100.00
59859;BME280;45734;53.648;9.566;2022-09-09T09:44:40;100923.69;;;22.04;100.00
59859;BME280;45734;53.648;9.566;2022-09-09T09:49:58;100923.44;;;20.97;100.00
59859;BME280;45734;53.648;9.566;2022-09-09T09:55:03;100920.94;;;20.58;100.00
59859;BME280;45734;53.648;9.566;2022-09-09T10:00:16;100927.78;;;20.79;100.00
59859;BME280;45734;53.648;9.566;2022-09-09T10:05:22;100935.63;;;20.88;100.00
59859;BME280;45734;53.648;9.566;2022-09-09T10:16:08;100927.41;;;20.76;100.00
59859;BME280;45734;53.648;9.566;2022-09-09T10:36:57;100924.56;;;21.44;100.00
59859;BME280;45734;53.648;9.566;2022-09-09T10:42:05;100920.03;;;21.57;100.00
59859;BME280;45734;53.648;9.566;2022-09-09T10:58:02;100917.50;;;21.74;100.00
59859;BME280;45734;53.648;9.566;2022-09-09T11:03:04;100905.66;;;21.56;100.00
59859;BME280;45734;53.648;9.566;2022-09-09T11:13:17;100914.75;;;21.62;100.00
59859;BME280;45734;53.648;9.566;2022-09-09T11:18:21;100911.13;;;21.68;100.00
59859;BME280;45734;53.648;9.566;2022-09-09T11:23:28;100912.34;;;21.54;100.00
59859;BME280;45734;53.648;9.566;2022-09-09T11:29:05;100911.09;;;21.19;100.00
59859;BME280;45734;53.648;9.566;2022-09-09T11:34:35;100910.81;;;20.91;100.00
59859;BME280;45734;53.648;9.566;2022-09-09T11:45:27;100916.06;;;20.67;100.00
59859;BME280;45734;53.648;9.566;2022-09-09T11:50:34;100915.47;;;20.84;100.00
59859;BME280;45734;53.648;9.566;2022-09-09T11:55:36;100913.63;;;21.51;100.00
59859;BME280;45734;53.648;9.566;2022-09-09T12:00:38;100915.16;;;21.47;100.00
59859;BME280;45734;53.648;9.566;2022-09-09T12:05:45;100900.69;;;21.35;100.00
59859;BME280;45734;53.648;9.566;2022-09-09T12:10:57;100908.31;;;21.75;100.00
59859;BME280;45734;53.648;9.566;2022-09-09T12:16:00;100896.19;;;21.89;100.00
59859;BME280;45734;53.648;9.566;2022-09-09T12:26:29;100898.59;;;21.67;100.00
59859;BME280;45734;53.648;9.566;2022-09-09T12:36:32;100888.19;;;21.94;100.00
59859;BME280;45734;53.648;9.566;2022-09-09T12:41:33;100893.94;;;21.86;100.00
59859;BME280;45734;53.648;9.566;2022-09-09T12:46:37;100900.19;;;21.44;100.00
59859;BME280;45734;53.648;9.566;2022-09-09T12:51:42;100902.06;;;21.25;100.00
59859;BME280;45734;53.648;9.566;2022-09-09T12:56:45;100898.41;;;21.01;100.00
59859;BME280;45734;53.648;9.566;2022-09-09T13:01:55;100903.22;;;20.81;100.00
59859;BME280;45734;53.648;9.566;2022-09-09T13:07:08;100900.47;;;20.19;100.00
59859;BME280;45734;53.648;9.566;2022-09-09T13:12:17;100909.03;;;19.46;100.00
59859;BME280;45734;53.648;9.566;2022-09-09T13:17:21;100908.72;;;19.16;100.00
59859;BME280;45734;53.648;9.566;2022-09-09T13:22:34;100912.50;;;19.08;100.00
59859;BME280;45734;53.648;9.566;2022-09-09T13:27:38;100907.47;;;19.18;100.00
59859;BME280;45734;53.648;9.566;2022-09-09T13:32:38;100916.16;;;19.27;100.00
59859;BME280;45734;53.648;9.566;2022-09-09T13:37:39;100909.28;;;19.31;100.00
59859;BME280;45734;53.648;9.566;2022-09-09T13:42:44;100895.75;;;19.38;100.00
59859;BME280;45734;53.648;9.566;2022-09-09T13:47:44;100891.16;;;19.45;100.00
59859;BME280;45734;53.648;9.566;2022-09-09T13:52:50;100912.56;;;19.47;100.00
59859;BME280;45734;53.648;9.566;2022-09-09T13:58:03;100900.06;;;19.45;100.00
59859;BME280;45734;53.648;9.566;2022-09-09T14:03:05;100905.09;;;19.42;100.00
59859;BME280;45734;53.648;9.566;2022-09-09T14:08:07;100904.44;;;19.47;100.00
59859;BME280;45734;53.648;9.566;2022-09-09T14:13:09;100913.56;;;19.52;100.00
59859;BME280;45734;53.648;9.566;2022-09-09T14:18:12;100927.06;;;19.52;100.00
59859;BME280;45734;53.648;9.566;2022-09-09T14:23:13;100935.84;;;19.34;100.00
59859;BME280;45734;53.648;9.566;2022-09-09T14:28:15;100946.91;;;19.26;100.00
59859;BME280;45734;53.648;9.566;2022-09-09T14:33:16;100941.75;;;19.18;100.00
59859;BME280;45734;53.648;9.566;2022-09-09T14:38:17;100939.47;;;19.15;100.00
59859;BME280;45734;53.648;9.566;2022-09-09T14:43:17;100933.69;;;19.05;100.00
59859;BME280;45734;53.648;9.566;2022-09-09T14:48:18;100928.13;;;18.73;100.00
59859;BME280;45734;53.648;9.566;2022-09-09T14:53:19;100935.84;;;18.56;100.00
59859;BME280;45734;53.648;9.566;2022-09-09T14:58:19;100924.44;;;18.54;100.00
59859;BME280;45734;53.648;9.566;2022-09-09T15:03:19;100925.06;;;18.56;100.00
59859;BME280;45734;53.648;9.566;2022-09-09T15:08:22;100920.50;;;18.57;100.00
59859;BME280;45734;53.648;9.566;2022-09-09T15:13:22;100914.47;;;18.54;100.00
59859;BME280;45734;53.648;9.566;2022-09-09T15:18:23;100924.19;;;18.55;100.00
59859;BME280;45734;53.648;9.566;2022-09-09T15:23:23;100926.69;;;18.57;100.00
59859;BME280;45734;53.648;9.566;2022-09-09T15:28:23;100925.47;;;18.60;100.00
59859;BME280;45734;53.648;9.566;2022-09-09T15:33:24;100914.88;;;18.51;100.00
59859;BME280;45734;53.648;9.566;2022-09-09T15:38:24;100909.06;;;18.41;100.00
59859;BME280;45734;53.648;9.566;2022-09-09T15:43:25;100910.75;;;18.36;100.00
59859;BME280;45734;53.648;9.566;2022-09-09T15:48:31;100929.00;;;18.27;100.00
59859;BME280;45734;53.648;9.566;2022-09-09T15:53:34;100916.75;;;18.18;100.00
59859;BME280;45734;53.648;9.566;2022-09-09T15:58:35;100916.34;;;18.07;100.00
59859;BME280;45734;53.648;9.566;2022-09-09T16:03:38;100912.81;;;18.07;100.00
59859;BME280;45734;53.648;9.566;2022-09-09T16:08:40;100911.97;;;17.93;100.00
59859;BME280;45734;53.648;9.566;2022-09-09T16:13:43;100919.00;;;17.81;100.00
59859;BME280;45734;53.648;9.566;2022-09-09T16:18:45;100917.72;;;17.77;100.00
59859;BME280;45734;53.648;9.566;2022-09-09T16:23:47;100917.94;;;17.69;100.00
59859;BME280;45734;53.648;9.566;2022-09-09T16:28:49;100915.59;;;17.59;100.00
59859;BME280;45734;53.648;9.566;2022-09-09T16:33:50;100910.78;;;17.41;100.00
59859;BME280;45734;53.648;9.566;2022-09-09T16:38:58;100921.88;;;17.18;100.00
59859;BME280;45734;53.648;9.566;2022-09-09T16:44:01;100919.53;;;17.02;100.00
59859;BME280;45734;53.648;9.566;2022-09-09T16:49:07;100921.94;;;16.90;100.00
59859;BME280;45734;53.648;9.566;2022-09-09T16:54:09;100928.09;;;16.84;100.00
59859;BME280;45734;53.648;9.566;2022-09-09T16:59:12;100929.66;;;16.71;100.00
59859;BME280;45734;53.648;9.566;2022-09-09T17:04:14;100936.00;;;16.64;100.00
59859;BME280;45734;53.648;9.566;2022-09-09T17:09:21;100937.41;;;16.53;100.00
59859;BME280;45734;53.648;9.566;2022-09-09T17:14:22;100932.72;;;16.40;100.00
59859;BME280;45734;53.648;9.566;2022-09-09T17:19:23;100925.41;;;16.27;100.00
59859;BME280;45734;53.648;9.566;2022-09-09T17:24:25;100927.34;;;16.12;100.00
59859;BME280;45734;53.648;9.566;2022-09-09T17:29:26;100930.72;;;15.99;100.00
59859;BME280;45734;53.648;9.566;2022-09-09T17:34:26;100936.81;;;15.87;100.00
59859;BME280;45734;53.648;9.566;2022-09-09T17:39:27;100945.38;;;15.75;100.00
59859;BME280;45734;53.648;9.566;2022-09-09T17:44:27;100947.50;;;15.65;100.00
59859;BME280;45734;53.648;9.566;2022-09-09T17:49:28;100943.84;;;15.51;100.00
59859;BME280;45734;53.648;9.566;2022-09-09T17:54:29;100944.25;;;15.33;100.00
59859;BME280;45734;53.648;9.566;2022-09-09T17:59:29;100952.50;;;15.17;100.00
59859;BME280;45734;53.648;9.566;2022-09-09T18:04:30;100947.59;;;15.06;100.00
59859;BME280;45734;53.648;9.566;2022-09-09T18:09:31;100951.84;;;15.00;100.00
59859;BME280;45734;53.648;9.566;2022-09-09T18:14:32;100952.50;;;14.87;100.00
59859;BME280;45734;53.648;9.566;2022-09-09T18:19:32;100958.03;;;14.71;100.00
59859;BME280;45734;53.648;9.566;2022-09-09T18:24:33;100963.56;;;14.55;100.00
59859;BME280;45734;53.648;9.566;2022-09-09T18:29:35;100961.81;;;14.39;100.00
59859;BME280;45734;53.648;9.566;2022-09-09T18:34:35;100971.53;;;14.17;100.00
59859;BME280;45734;53.648;9.566;2022-09-09T18:39:35;100969.81;;;14.01;100.00
59859;BME280;45734;53.648;9.566;2022-09-09T18:44:36;100977.38;;;13.97;100.00
59859;BME280;45734;53.648;9.566;2022-09-09T18:49:36;100980.75;;;13.91;100.00
59859;BME280;45734;53.648;9.566;2022-09-09T18:54:36;100990.31;;;13.86;100.00
59859;BME280;45734;53.648;9.566;2022-09-09T18:59:37;100987.53;;;13.79;100.00
59859;BME280;45734;53.648;9.566;2022-09-09T19:04:37;100981.38;;;13.70;100.00
59859;BME280;45734;53.648;9.566;2022-09-09T19:09:37;100976.59;;;13.57;100.00
59859;BME280;45734;53.648;9.566;2022-09-09T19:14:38;100982.50;;;13.45;100.00
59859;BME280;45734;53.648;9.566;2022-09-09T19:19:38;100989.25;;;13.32;100.00
59859;BME280;45734;53.648;9.566;2022-09-09T19:24:41;101012.00;;;13.28;100.00
59859;BME280;45734;53.648;9.566;2022-09-09T19:29:41;100987.88;;;13.36;100.00
59859;BME280;45734;53.648;9.566;2022-09-09T19:34:43;101013.94;;;13.43;100.00
59859;BME280;45734;53.648;9.566;2022-09-09T19:39:44;100997.00;;;13.58;100.00
59859;BME280;45734;53.648;9.566;2022-09-09T19:44:45;100995.91;;;13.76;100.00
59859;BME280;45734;53.648;9.566;2022-09-09T19:49:45;101005.72;;;13.84;100.00
59859;BME280;45734;53.648;9.566;2022-09-09T19:54:46;100999.53;;;13.83;100.00
59859;BME280;45734;53.648;9.566;2022-09-09T19:59:46;101010.59;;;13.80;100.00
59859;BME280;45734;53.648;9.566;2022-09-09T20:04:47;101012.47;;;13.79;100.00
59859;BME280;45734;53.648;9.566;2022-09-09T20:09:47;101016.63;;;13.82;100.00
59859;BME280;45734;53.648;9.566;2022-09-09T20:14:48;101016.75;;;13.89;100.00
59859;BME280;45734;53.648;9.566;2022-09-09T20:19:48;101024.78;;;13.89;100.00
59859;BME280;45734;53.648;9.566;2022-09-09T20:24:48;101036.50;;;13.88;100.00
59859;BME280;45734;53.648;9.566;2022-09-09T20:29:49;101030.31;;;13.87;100.00
59859;BME280;45734;53.648;9.566;2022-09-09T20:34:50;101030.66;;;13.84;100.00
59859;BME280;45734;53.648;9.566;2022-09-09T20:39:50;101027.69;;;13.79;100.00
59859;BME280;45734;53.648;9.566;2022-09-09T20:44:51;101025.19;;;13.77;100.00
59859;BME280;45734;53.648;9.566;2022-09-09T20:49:51;101026.34;;;13.75;100.00
59859;BME280;45734;53.648;9.566;2022-09-09T20:54:52;101024.50;;;13.75;100.00
59859;BME280;45734;53.648;9.566;2022-09-09T20:59:53;101031.19;;;13.79;100.00
59859;BME280;45734;53.648;9.566;2022-09-09T21:04:53;101035.19;;;13.84;100.00
59859;BME280;45734;53.648;9.566;2022-09-09T21:09:53;101036.31;;;13.89;100.00
59859;BME280;45734;53.648;9.566;2022-09-09T21:14:56;101039.66;;;13.91;100.00
59859;BME280;45734;53.648;9.566;2022-09-09T21:19:56;101040.84;;;13.89;100.00
59859;BME280;45734;53.648;9.566;2022-09-09T21:24:57;101031.66;;;13.83;100.00
59859;BME280;45734;53.648;9.566;2022-09-09T21:29:57;101028.16;;;13.82;100.00
59859;BME280;45734;53.648;9.566;2022-09-09T21:34:57;101026.47;;;13.81;100.00
59859;BME280;45734;53.648;9.566;2022-09-09T21:39:58;101024.16;;;13.78;100.00
59859;BME280;45734;53.648;9.566;2022-09-09T21:44:58;101021.19;;;13.73;100.00
59859;BME280;45734;53.648;9.566;2022-09-09T21:49:59;101021.69;;;13.69;100.00
59859;BME280;45734;53.648;9.566;2022-09-09T21:55:00;101025.06;;;13.63;100.00
59859;BME280;45734;53.648;9.566;2022-09-09T22:00:01;101021.59;;;13.54;100.00
59859;BME280;45734;53.648;9.566;2022-09-09T22:05:03;101016.47;;;13.44;100.00
59859;BME280;45734;53.648;9.566;2022-09-09T22:10:06;101004.25;;;13.42;100.00
59859;BME280;45734;53.648;9.566;2022-09-09T22:15:06;100987.19;;;13.43;100.00
59859;BME280;45734;53.648;9.566;2022-09-09T22:20:07;100988.69;;;13.45;100.00
59859;BME280;45734;53.648;9.566;2022-09-09T22:25:08;100977.16;;;13.45;100.00
59859;BME280;45734;53.648;9.566;2022-09-09T22:30:09;100986.75;;;13.31;100.00
59859;BME280;45734;53.648;9.566;2022-09-09T22:35:09;100992.16;;;13.06;100.00
59859;BME280;45734;53.648;9.566;2022-09-09T22:40:10;100989.34;;;12.83;100.00
59859;BME280;45734;53.648;9.566;2022-09-09T22:45:13;100997.19;;;12.85;100.00
59859;BME280;45734;53.648;9.566;2022-09-09T22:50:13;101030.78;;;12.96;100.00
59859;BME280;45734;53.648;9.566;2022-09-09T22:55:14;101035.59;;;13.08;100.00
59859;BME280;45734;53.648;9.566;2022-09-09T23:00:14;101041.94;;;13.16;100.00
59859;BME280;45734;53.648;9.566;2022-09-09T23:05:16;101048.09;;;13.24;100.00
59859;BME280;45734;53.648;9.566;2022-09-09T23:10:16;101044.56;;;13.32;100.00
59859;BME280;45734;53.648;9.566;2022-09-09T23:15:17;101043.59;;;13.33;100.00
59859;BME280;45734;53.648;9.566;2022-09-09T23:20:17;101046.78;;;13.28;100.00
59859;BME280;45734;53.648;9.566;2022-09-09T23:25:21;101038.06;;;13.26;100.00
59859;BME280;45734;53.648;9.566;2022-09-09T23:30:21;101031.06;;;13.25;100.00
59859;BME280;45734;53.648;9.566;2022-09-09T23:35:22;101030.56;;;13.22;100.00
59859;BME280;45734;53.648;9.566;2022-09-09T23:40:22;101041.09;;;13.15;100.00
59859;BME280;45734;53.648;9.566;2022-09-09T23:45:23;101028.06;;;13.12;100.00
59859;BME280;45734;53.648;9.566;2022-09-09T23:50:23;101030.91;;;13.02;100.00
59859;BME280;45734;53.648;9.566;2022-09-09T23:55:23;101032.28;;;12.90;100.00
